createdAt,value
2023-05-23T00:00:52.593Z,3.88
2023-05-23T00:06:15.253Z,2.78
2023-05-23T00:11:38.408Z,2.05
2023-05-23T00:17:01.212Z,1.95
2023-05-23T00:22:23.212Z,2.45
2023-05-23T00:27:46.589Z,1.90
2023-05-23T00:33:08.968Z,2.33
2023-05-23T00:38:31.461Z,1.90
2023-05-23T00:43:54.896Z,2.20
2023-05-23T00:49:20.076Z,2.45
2023-05-23T00:54:42.141Z,3.20
2023-05-23T01:00:08.817Z,2.80
2023-05-23T01:05:33.129Z,2.17
2023-05-23T01:10:54.979Z,2.40
2023-05-23T01:16:19.721Z,2.42
2023-05-23T01:21:42.791Z,2.92
2023-05-23T01:27:09.856Z,2.58
2023-05-23T01:32:33.749Z,3.13
2023-05-23T01:37:56.020Z,2.65
2023-05-23T01:43:19.493Z,2.53
2023-05-23T01:48:42.712Z,2.90
2023-05-23T01:54:05.161Z,3.03
2023-05-23T01:59:27.435Z,2.80
2023-05-23T02:04:54.091Z,3.13
2023-05-23T02:10:16.198Z,3.10
2023-05-23T02:15:38.364Z,2.70
2023-05-23T02:21:01.634Z,2.50
2023-05-23T02:26:24.041Z,3.13
2023-05-23T02:31:46.111Z,3.50
2023-05-23T02:37:10.101Z,3.53
2023-05-23T02:42:33.402Z,3.33
2023-05-23T02:47:56.505Z,3.45
2023-05-23T02:53:22.648Z,3.38
2023-05-23T02:58:44.986Z,3.45
2023-05-23T03:04:06.965Z,3.35
2023-05-23T03:09:30.553Z,3.03
2023-05-23T03:14:52.668Z,3.83
2023-05-23T03:20:15.204Z,3.67
2023-05-23T03:25:38.659Z,3.65
2023-05-23T03:31:00.815Z,3.20
2023-05-23T03:36:26.048Z,3.67
2023-05-23T03:41:49.565Z,3.50
2023-05-23T03:47:12.249Z,3.45
2023-05-23T03:52:37.908Z,3.40
2023-05-23T03:58:01.201Z,3.67
2023-05-23T04:03:26.275Z,3.95
2023-05-23T04:08:48.647Z,4.25
2023-05-23T04:14:13.677Z,3.28
2023-05-23T04:19:36.280Z,3.60
2023-05-23T04:24:58.392Z,3.70
2023-05-23T04:30:25.537Z,4.20
2023-05-23T04:35:47.911Z,4.90
2023-05-23T04:41:11.271Z,4.22
2023-05-23T04:46:51.683Z,5.45
2023-05-23T04:52:38.080Z,4.68
2023-05-23T04:58:00.582Z,4.07
2023-05-23T05:03:25.115Z,5.03
2023-05-23T05:08:49.800Z,4.38
2023-05-23T05:14:11.791Z,5.63
2023-05-23T05:19:35.336Z,4.50
2023-05-23T05:24:57.112Z,5.15
2023-05-23T05:30:20.356Z,5.38
2023-05-23T05:35:51.442Z,4.93
2023-05-23T05:41:13.206Z,4.35
2023-05-23T05:46:42.949Z,4.50
2023-05-23T05:52:06.973Z,5.47
2023-05-23T05:57:29.428Z,5.25
2023-05-23T06:02:52.691Z,4.63
2023-05-23T06:08:26.679Z,4.80
2023-05-23T06:13:48.501Z,4.35
2023-05-23T06:19:10.374Z,3.95
2023-05-23T06:24:35.123Z,4.05
2023-05-23T06:29:58.216Z,5.00
2023-05-23T06:35:20.297Z,6.00
2023-05-23T06:40:43.741Z,5.13
2023-05-23T06:46:07.095Z,4.28
2023-05-23T06:51:29.031Z,3.70
2023-05-23T06:56:52.354Z,3.95
2023-05-23T07:02:16.121Z,3.75
2023-05-23T07:07:39.553Z,3.53
2023-05-23T07:13:03.829Z,3.38
2023-05-23T07:18:26.420Z,3.83
2023-05-23T07:23:49.737Z,5.30
2023-05-23T07:29:14.242Z,4.38
2023-05-23T07:34:37.518Z,5.03
2023-05-23T07:40:00.714Z,4.30
2023-05-23T07:45:25.427Z,4.35
2023-05-23T07:50:48.978Z,4.63
2023-05-23T07:56:12.608Z,4.25
2023-05-23T08:01:38.805Z,3.97
2023-05-23T08:07:05.930Z,2.78
2023-05-23T08:12:38.852Z,3.67
2023-05-23T08:18:07.875Z,2.55
2023-05-23T08:23:30.323Z,2.90
2023-05-23T08:28:53.995Z,2.70
2023-05-23T08:34:18.325Z,3.72
2023-05-23T08:39:41.584Z,3.65
2023-05-23T08:45:22.915Z,3.42
2023-05-23T08:50:47.925Z,3.45
2023-05-23T08:56:13.324Z,4.03
2023-05-23T09:01:41.526Z,4.60
2023-05-23T09:07:07.729Z,2.58
2023-05-23T09:12:30.938Z,3.13
2023-05-23T09:17:53.745Z,3.50
2023-05-23T09:23:18.084Z,5.05
2023-05-23T09:28:41.353Z,3.92
2023-05-23T09:34:03.960Z,3.70
2023-05-23T09:39:28.528Z,3.72
2023-05-23T09:44:51.483Z,2.50
2023-05-23T09:50:14.629Z,2.55
2023-05-23T09:55:40.566Z,3.75
2023-05-23T10:01:04.253Z,3.90
2023-05-23T10:06:28.199Z,3.22
2023-05-23T10:12:18.628Z,3.00
2023-05-23T10:17:47.694Z,4.72
2023-05-23T10:23:11.903Z,3.63
2023-05-23T10:28:40.803Z,4.18
2023-05-23T10:34:10.024Z,4.40
2023-05-23T10:39:36.944Z,5.30
2023-05-23T10:45:14.085Z,6.25
2023-05-23T10:50:43.098Z,8.25
2023-05-23T10:56:12.582Z,6.97
2023-05-23T11:01:40.481Z,7.57
2023-05-23T11:07:04.714Z,7.72
2023-05-23T11:12:38.510Z,6.43
2023-05-23T11:18:01.595Z,7.57
2023-05-23T11:23:25.789Z,5.90
2023-05-23T11:28:57.673Z,7.10
2023-05-23T11:34:21.805Z,7.00
2023-05-23T11:39:46.105Z,7.05
2023-05-23T11:45:10.237Z,7.65
2023-05-23T11:50:33.205Z,8.65
2023-05-23T11:55:58.697Z,9.02
2023-05-23T12:01:21.853Z,9.20
2023-05-23T12:06:44.267Z,10.00
2023-05-23T12:12:08.934Z,10.70
2023-05-23T12:17:31.887Z,9.65
2023-05-23T12:23:05.244Z,11.43
2023-05-23T12:28:37.718Z,10.63
2023-05-23T12:34:00.392Z,9.45
2023-05-23T12:39:30.273Z,8.25
2023-05-23T12:45:01.400Z,7.90
2023-05-23T12:50:24.217Z,7.07
2023-05-23T12:55:46.804Z,7.47
2023-05-23T13:01:11.765Z,7.25
2023-05-23T13:06:34.531Z,6.80
2023-05-23T13:12:02.046Z,6.50
2023-05-23T13:17:26.131Z,6.70
2023-05-23T13:22:48.816Z,6.68
2023-05-23T13:28:17.054Z,6.25
2023-05-23T13:33:42.036Z,7.22
2023-05-23T13:39:05.003Z,7.50
2023-05-23T13:44:27.799Z,6.63
2023-05-23T13:49:51.507Z,6.57
2023-05-23T13:55:14.860Z,6.65
2023-05-23T14:00:37.785Z,6.60
2023-05-23T14:06:01.942Z,6.25
2023-05-23T14:11:24.639Z,7.00
2023-05-23T14:16:47.567Z,7.00
2023-05-23T14:22:12.431Z,8.10
2023-05-23T14:27:35.082Z,5.88
2023-05-23T14:32:57.959Z,7.10
2023-05-23T14:38:22.204Z,7.00
2023-05-23T14:43:45.109Z,7.28
2023-05-23T14:49:07.313Z,6.80
2023-05-23T14:54:31.652Z,3.63
2023-05-23T14:59:54.595Z,3.00
2023-05-23T15:05:18.021Z,2.13
2023-05-23T15:10:44.829Z,2.00
2023-05-23T15:16:07.684Z,1.55
2023-05-23T15:21:30.462Z,1.25
2023-05-23T15:26:56.826Z,0.88
2023-05-23T15:32:22.713Z,1.17
2023-05-23T15:37:45.407Z,1.20
2023-05-23T15:43:09.216Z,2.30
2023-05-23T15:48:32.729Z,1.38
2023-05-23T15:54:01.533Z,1.40
2023-05-23T15:59:26.193Z,1.30
2023-05-23T16:04:48.904Z,1.42
2023-05-23T16:10:11.558Z,1.85
2023-05-23T16:15:36.265Z,1.75
2023-05-23T16:20:58.922Z,1.40
2023-05-23T16:26:21.400Z,1.70
2023-05-23T16:31:45.776Z,1.73
2023-05-23T16:37:08.553Z,2.10
2023-05-23T16:42:31.555Z,2.47
2023-05-23T16:47:55.965Z,3.40
2023-05-23T16:53:18.447Z,3.67
2023-05-23T16:58:44.479Z,2.30
2023-05-23T17:04:08.439Z,2.58
2023-05-23T17:09:31.033Z,2.17
2023-05-23T17:14:54.299Z,2.35
2023-05-23T17:20:18.497Z,2.80
2023-05-23T17:25:41.036Z,3.10
2023-05-23T17:31:04.177Z,2.95
2023-05-23T17:36:28.109Z,2.92
2023-05-23T17:41:50.800Z,3.30
2023-05-23T17:47:13.085Z,3.80
2023-05-23T17:52:37.413Z,3.58
2023-05-23T17:58:00.240Z,3.78
2023-05-23T18:03:23.075Z,4.40
2023-05-23T18:08:48.277Z,4.50
2023-05-23T18:14:11.390Z,5.93
2023-05-23T18:19:34.389Z,4.93
2023-05-23T18:24:58.774Z,4.18
2023-05-23T18:30:21.813Z,4.15
2023-05-23T18:35:44.628Z,4.15
2023-05-23T18:41:13.197Z,5.93
2023-05-23T18:46:37.716Z,4.65
2023-05-23T18:52:00.933Z,5.15
2023-05-23T18:57:25.360Z,6.13
2023-05-23T19:02:48.780Z,6.30
2023-05-23T19:08:11.606Z,7.05
2023-05-23T19:13:35.617Z,7.85
2023-05-23T19:18:58.854Z,7.55
2023-05-23T19:24:22.030Z,7.68
2023-05-23T19:29:46.194Z,8.00
2023-05-23T19:35:09.097Z,7.13
2023-05-23T19:40:31.711Z,7.10
2023-05-23T19:45:55.854Z,8.32
2023-05-23T19:51:18.209Z,7.45
2023-05-23T19:56:41.623Z,7.70
2023-05-23T20:02:05.773Z,8.30
2023-05-23T20:07:28.949Z,8.68
2023-05-23T20:12:51.345Z,7.75
2023-05-23T20:18:15.515Z,8.10
2023-05-23T20:23:38.385Z,7.80
2023-05-23T20:29:01.092Z,9.05
2023-05-23T20:34:25.299Z,8.60
2023-05-23T20:39:48.999Z,9.82
2023-05-23T20:45:12.642Z,11.00
2023-05-23T20:50:38.040Z,11.55
2023-05-23T20:56:00.755Z,12.50
2023-05-23T21:01:23.716Z,13.10
2023-05-23T21:06:47.964Z,11.88
2023-05-23T21:12:12.248Z,12.52
2023-05-23T21:17:34.741Z,13.10
2023-05-23T21:22:58.578Z,14.57
2023-05-23T21:28:21.551Z,14.80
2023-05-23T21:33:49.966Z,16.95
2023-05-23T21:39:14.036Z,17.63
2023-05-23T21:44:38.219Z,16.33
2023-05-23T21:50:08.849Z,13.57
2023-05-23T21:55:32.536Z,12.88
2023-05-23T22:00:55.270Z,12.75
2023-05-23T22:06:17.992Z,11.52
2023-05-23T22:11:41.868Z,10.32
2023-05-23T22:17:04.953Z,9.77
2023-05-23T22:22:27.398Z,11.02
2023-05-23T22:27:52.510Z,10.95
2023-05-23T22:33:15.318Z,11.90
2023-05-23T22:38:37.957Z,11.63
2023-05-23T22:44:01.880Z,11.40
2023-05-23T22:49:25.484Z,12.13
2023-05-23T22:54:48.480Z,11.95
2023-05-23T23:00:13.754Z,13.43
2023-05-23T23:05:36.423Z,13.85
2023-05-23T23:11:01.568Z,13.57
2023-05-23T23:16:26.138Z,13.80
2023-05-23T23:21:48.969Z,12.35
2023-05-23T23:27:14.932Z,12.07
2023-05-23T23:32:39.198Z,12.75
2023-05-23T23:38:01.976Z,12.55
2023-05-23T23:43:24.799Z,11.90
2023-05-23T23:48:48.129Z,11.70
2023-05-23T23:54:10.950Z,12.50
2023-05-23T23:59:34.052Z,12.07
